MSC Sabrina — 3FMG8 — position and weather

sailwx.info

Track history (hours):
 
Tides and Currents Weather Stations Pressure Air Temp Water Temp Dewpoint Dewpoint Depression Visibility Wind Speed Wind Dir Waves Ship Positions

MSC Sabrina

Last reported at 2017-Nov-19 05:41 UTC. Time now 2017-Nov-22 03:42 UTC.
Position N 05°05' W 000°10'.

Length 224 m; beam 32.2 m; draft 12.1 m.

Type: Ship (hazmat cat A). MMSI: 356101000.

Date/timePositionNaut miles runAvg speedWind from/ knotsBaromVisibWave heightAir tempDewpointWater temp
2017-Nov-19 05:41N 05°05' W 000°10'414.6
2017-Nov-19 05:26N 05°06' W 000°06'614.5
2017-Nov-19 05:00N 05°08' W 000°00'714.6
2017-Nov-19 04:30N 05°11' E 000°06'714.6
2017-Nov-19 04:00N 05°14' E 000°13'714.8
2017-Nov-19 03:30N 05°17' E 000°20'714.6
2017-Nov-19 03:00N 05°19' E 000°27'714.6
2017-Nov-19 02:30N 05°22' E 000°34'  
2017-Nov-15 09:10N 05°24' E 000°39'718.3
2017-Nov-15 08:45N 05°21' E 000°32'518.5
2017-Nov-15 08:29N 05°20' E 000°27'918.5
2017-Nov-15 08:00N 05°18' E 000°18'918.3
2017-Nov-15 07:30N 05°15' E 000°10'918.0
2017-Nov-15 07:00N 05°11' E 000°01'917.9
2017-Nov-15 06:30N 05°09' W 000°07'  
Track history (hours):
 
Tides and Currents Weather Stations Pressure Air Temp Water Temp Dewpoint Dewpoint Depression Visibility Wind Speed Wind Dir Waves Ship Positions

MSC Sabrina

Last reported at 2017-Nov-19 05:41 UTC. Time now 2017-Nov-22 03:42 UTC.
Position N 05°05' W 000°10'.

Length 224 m; beam 32.2 m; draft 12.1 m.

Type: Ship (hazmat cat A). MMSI: 356101000.

Date/timePositionNaut miles runAvg speedWind from/ knotsBaromVisibWave heightAir tempDewpointWater temp
2017-Nov-19 05:41N 05°05' W 000°10'414.6
2017-Nov-19 05:26N 05°06' W 000°06'614.5
2017-Nov-19 05:00N 05°08' W 000°00'714.6
2017-Nov-19 04:30N 05°11' E 000°06'714.6
2017-Nov-19 04:00N 05°14' E 000°13'714.8
2017-Nov-19 03:30N 05°17' E 000°20'714.6
2017-Nov-19 03:00N 05°19' E 000°27'714.6
2017-Nov-19 02:30N 05°22' E 000°34'  
2017-Nov-15 09:10N 05°24' E 000°39'718.3
2017-Nov-15 08:45N 05°21' E 000°32'518.5
2017-Nov-15 08:29N 05°20' E 000°27'918.5
2017-Nov-15 08:00N 05°18' E 000°18'918.3
2017-Nov-15 07:30N 05°15' E 000°10'918.0
2017-Nov-15 07:00N 05°11' E 000°01'917.9
2017-Nov-15 06:30N 05°09' W 000°07'  

Dump ship's entire track history